Portada
METAR-TAF:

METAR-TAF

Aeroports :

Yüksekova, Turquia

latitud: 37-33-06N, longitud: 44-14-01E, altitud: 1950 m

Observació

L'informe es va fer fa 47 minuts, a les 04:50 UTC
Vent 2 kt amb direcció variable
Temperatura 18°C
Humitat 39%
Pressió 1020 hPa
Visibilitat 10 km o més
sense núvols per sota de 1500 mi sense presència de cumulonimbus.

METAR: LTCW 220450Z VRB02KT CAVOK 18/04 Q1020

Hora: 08:37 (05:37 UTC)

Pronòstic

L'informe es va fer fa 57 minuts, a les 04:40 UTC
Pronòstic vàlid del 22 a les 06 UTC al 22 a les 15 UTC
Vent 2 kt amb direcció variable
Visibilitat 10 km o més
sense núvols per sota de 1500 mi sense presència de cumulonimbus.
Evolucionant progressivament
l' 22 a les 07 UTC al 22 a les 09 UTC
Vent 12 kt del Sud-Oest

TAF: LTCW 220440Z 2206/2215 VRB02KT CAVOK BECMG 2207/2209 22012KT

Observacions i pronòstics meteorològics de més de 4000 aeroports (METAR i TAF).

Les estacions disponibles són els punts grocs i vermells al mapa.

Posi el ratolí al punt desitjat per veure el nom de l'estació.

Feu clic per veure les observacions i els pronòstics meteorològics.

Per canviar el mapa: feu clic els botons verds amb una creu de color negre per apropar; al botó verd amb un guió per allunyar la imatge; o en les fletxes verdes per a mapes adjacents.


METAR-TAF: